Time;durP1;ratioP1;P1;durP2;ratioP2;P2;SDS_P1;SDS_P2;PMS_P1;PMS_P2;Temp;Humidity;BMP_temperature;BMP_pressure;BME280_temperature;BME280_humidity;BME280_pressure;Samples;Min_cycle;Max_cycle;Signal;HPM_P1;HPM_P2
2022/02/03 00:00:03;;;;;;;77.60;44.20;;;;;;;-1.12;78.24;96782.73;110122;1247;59754;-66
2022/02/03 00:16:43;;;;;;;33.90;22.70;;;;;;;-1.07;77.46;96804.79;110458;1244;59647;-66
2022/02/03 00:24:57;;;;;;;39.50;25.20;;;;;;;-0.94;77.04;96814.60;110239;1244;69434;-67
2022/02/03 00:27:47;;;;;;;40.70;25.20;;;;;;;-0.90;77.10;96819.23;110434;1244;59696;-66
2022/02/03 00:30:19;;;;;;;38.40;24.30;;;;;;;-0.86;76.91;96820.29;110558;1246;59662;-67
2022/02/03 00:49:47;;;;;;;48.70;30.30;;;;;;;-0.90;76.83;96838.89;110404;1246;68695;-66
2022/02/03 00:52:17;;;;;;;44.30;28.60;;;;;;;-0.92;76.89;96837.09;110434;1246;69516;-67
2022/02/03 00:54:46;;;;;;;41.60;27.80;;;;;;;-0.91;76.80;96839.30;110403;1245;59777;-65
2022/02/03 00:57:29;;;;;;;44.30;30.10;;;;;;;-0.91;76.71;96843.58;110323;1247;59659;-66
2022/02/03 01:00:10;;;;;;;41.50;27.10;;;;;;;-0.91;76.85;96844.09;110273;1246;70771;-67
2022/02/03 01:02:53;;;;;;;41.40;26.20;;;;;;;-0.91;76.99;96846.45;110267;1247;68547;-67
2022/02/03 01:05:23;;;;;;;43.30;27.70;;;;;;;-0.90;77.02;96846.27;110257;1246;69434;-65
2022/02/03 01:07:52;;;;;;;;;;;;;;;-0.90;77.17;96847.95;110559;1246;59645;-66
2022/02/03 01:10:29;;;;;;;42.00;27.60;;;;;;;-0.90;77.44;96849.52;110399;1246;59685;-66
2022/02/03 01:13:07;;;;;;;32.70;18.70;;;;;;;-0.90;76.91;96848.64;110539;1246;70800;-66
2022/02/03 01:15:44;;;;;;;33.40;19.60;;;;;;;-0.88;76.49;96842.95;110458;1246;68617;-66
2022/02/03 01:19:05;;;;;;;54.70;31.00;;;;;;;-0.88;76.54;96842.41;110229;1247;68852;-66
2022/02/03 01:44:22;;;;;;;38.70;23.70;;;;;;;-0.84;77.15;96857.67;110216;1245;67820;-66
2022/02/03 01:46:19;;;;;;;53.70;33.20;;;;;;;-0.83;76.93;96856.27;110365;1246;69566;-67
2022/02/03 01:49:09;;;;;;;49.00;31.20;;;;;;;-0.82;77.30;96849.75;110561;1246;59684;-66
2022/02/03 01:51:54;;;;;;;34.70;21.10;;;;;;;-0.81;77.29;96855.84;110561;1245;59687;-66
2022/02/03 01:54:29;;;;;;;37.70;24.50;;;;;;;-0.79;77.00;96864.15;110213;1247;71574;-69
2022/02/03 01:57:20;;;;;;;64.70;35.60;;;;;;;-0.78;77.14;96862.75;110461;1246;67470;-67
2022/02/03 02:00:01;;;;;;;63.70;36.60;;;;;;;-0.77;77.16;96864.45;110484;1246;68628;-67
2022/02/03 02:03:03;;;;;;;;;;;;;;;-0.77;77.12;96872.80;110206;1247;59695;-67
2022/02/03 02:05:51;;;;;;;42.70;26.50;;;;;;;-0.77;77.33;96880.86;110215;1247;59706;-66
2022/02/03 02:09:01;;;;;;;43.00;25.20;;;;;;;-0.76;77.23;96889.54;110298;1247;70824;-67
2022/02/03 02:11:57;;;;;;;34.00;18.70;;;;;;;-0.74;77.21;96890.66;110300;1246;67878;-69
2022/02/03 02:43:08;;;;;;;41.90;25.40;;;;;;;-0.74;78.67;96920.80;110399;1247;69418;-67
2022/02/03 02:45:48;;;;;;;44.00;25.90;;;;;;;-0.76;78.90;96923.59;110286;1245;59763;-68
2022/02/03 02:48:39;;;;;;;34.00;20.20;;;;;;;-0.76;78.90;96930.27;110394;1246;59663;-68
2022/02/03 02:51:16;;;;;;;43.50;25.20;;;;;;;-0.75;78.94;96930.59;110071;1246;71557;-66
2022/02/03 02:56:48;;;;;;;55.80;33.50;;;;;;;-0.77;79.10;96942.46;110393;1246;68595;-66
2022/02/03 03:31:02;;;;;;;45.30;23.10;;;;;;;-1.05;80.96;96992.00;110119;1247;60208;-66
2022/02/03 03:33:43;;;;;;;46.20;27.80;;;;;;;-1.05;80.83;96993.69;110406;1247;71535;-68
2022/02/03 03:36:17;;;;;;;47.00;27.60;;;;;;;-1.06;81.16;96995.10;110577;1245;68573;-67
2022/02/03 03:38:49;;;;;;;49.40;27.50;;;;;;;-1.08;81.38;97001.51;110498;1245;69476;-69
2022/02/03 03:41:21;;;;;;;50.20;27.50;;;;;;;-1.09;81.47;97002.23;110500;1245;59687;-68
2022/02/03 03:44:03;;;;;;;47.80;24.50;;;;;;;-1.09;81.42;97004.79;110342;1244;59740;-67
2022/02/03 03:46:35;;;;;;;51.80;27.50;;;;;;;-1.11;81.81;97009.67;110552;1246;69798;-68
2022/02/03 03:49:10;;;;;;;44.70;24.90;;;;;;;-1.12;81.86;97013.45;110595;1247;68450;-66
2022/02/03 03:51:47;;;;;;;46.50;24.70;;;;;;;-1.13;82.16;97010.73;110559;1245;69309;-66
2022/02/03 03:54:45;;;;;;;44.50;24.10;;;;;;;-1.13;82.12;97013.83;110521;1246;59683;-66
2022/02/03 03:57:32;;;;;;;51.60;26.30;;;;;;;-1.12;82.31;97013.95;110234;1247;59688;-67
2022/02/03 04:57:18;;;;;;;23.70;14.20;;;;;;;-0.43;79.24;97086.77;109872;1250;59694;-67
2022/02/03 05:06:10;;;;;;;22.20;12.80;;;;;;;-0.36;79.25;97105.36;110448;1244;67898;-66
2022/02/03 05:18:45;;;;;;;34.90;19.70;;;;;;;-0.32;79.16;97114.81;110510;1244;71508;-68
2022/02/03 05:24:46;;;;;;;22.50;10.70;;;;;;;-0.31;78.64;97129.88;110395;1244;69005;-65
2022/02/03 06:07:37;;;;;;;17.20;10.60;;;;;;;-0.37;77.39;97220.13;110143;1247;68922;-65
2022/02/03 06:13:01;;;;;;;18.50;11.20;;;;;;;-0.35;77.39;97225.02;110257;1244;59729;-67
2022/02/03 06:29:15;;;;;;;18.40;12.10;;;;;;;-0.26;77.24;97248.38;110418;1244;71570;-67
2022/02/03 06:31:46;;;;;;;16.50;11.10;;;;;;;-0.24;77.26;97248.98;110534;1244;68605;-65
2022/02/03 06:34:22;;;;;;;14.30;9.90;;;;;;;-0.22;77.15;97250.15;110518;1244;69017;-65
2022/02/03 06:36:54;;;;;;;17.40;13.30;;;;;;;-0.20;77.31;97256.90;110546;1241;59781;-67
2022/02/03 06:39:27;;;;;;;16.50;10.90;;;;;;;-0.17;77.16;97262.97;110557;1244;59684;-65
2022/02/03 06:42:00;;;;;;;14.60;10.30;;;;;;;-0.16;77.07;97265.16;110499;1244;71411;-66
2022/02/03 06:44:51;;;;;;;18.70;12.30;;;;;;;-0.14;77.09;97269.73;110489;1244;69035;-66
2022/02/03 06:50:16;;;;;;;16.90;11.00;;;;;;;-0.17;77.00;97271.19;110508;1244;59686;-66
2022/02/03 06:56:00;;;;;;;14.20;9.50;;;;;;;-0.16;77.11;97279.41;110419;1244;70607;-66
2022/02/03 07:00:53;;;;;;;12.50;8.60;;;;;;;-0.13;76.97;97289.92;110024;1244;635974;-66
2022/02/03 07:03:26;;;;;;;15.00;9.60;;;;;;;-0.09;76.95;97287.23;110532;1244;59763;-66
2022/02/03 07:05:55;;;;;;;17.10;10.70;;;;;;;-0.07;76.85;97294.34;110507;1246;59683;-66
2022/02/03 07:08:25;;;;;;;15.70;9.80;;;;;;;-0.09;76.61;97299.20;110409;1244;72221;-66
2022/02/03 07:10:56;;;;;;;20.00;12.50;;;;;;;-0.12;76.74;97300.65;110458;1244;67881;-64
2022/02/03 07:13:25;;;;;;;17.40;10.60;;;;;;;-0.12;76.70;97297.75;110436;1244;69227;-66
2022/02/03 07:15:54;;;;;;;15.10;10.70;;;;;;;-0.09;76.74;97293.22;110109;1244;59752;-65
2022/02/03 07:18:23;;;;;;;17.40;12.00;;;;;;;-0.06;76.80;97296.38;110130;1247;59718;-66
2022/02/03 07:20:52;;;;;;;17.80;11.30;;;;;;;-0.03;76.81;97297.63;110455;1244;70809;-67
2022/02/03 07:23:22;;;;;;;22.20;15.30;;;;;;;0.03;76.88;97302.41;110330;1244;68498;-65
2022/02/03 07:25:51;;;;;;;16.70;10.90;;;;;;;0.07;76.68;97304.53;110360;1245;69497;-65
2022/02/03 07:28:20;;;;;;;21.80;14.70;;;;;;;0.10;77.27;97316.27;110253;1244;59773;-64
2022/02/03 07:30:49;;;;;;;18.90;12.40;;;;;;;0.13;76.83;97322.14;110330;1244;59687;-65
2022/02/03 07:33:21;;;;;;;18.00;11.50;;;;;;;0.15;76.56;97326.55;110471;1244;70807;-64
2022/02/03 07:35:50;;;;;;;14.10;9.40;;;;;;;0.14;76.57;97328.29;110352;1244;67928;-68
2022/02/03 07:38:21;;;;;;;20.60;11.20;;;;;;;0.16;76.30;97326.69;110502;1244;69233;-65
2022/02/03 07:40:50;;;;;;;19.90;11.40;;;;;;;0.14;76.41;97336.16;110367;1244;59673;-66
2022/02/03 07:43:21;;;;;;;17.40;10.00;;;;;;;0.15;76.33;97334.25;110399;1244;59688;-65
2022/02/03 07:45:50;;;;;;;;;;;;;;;0.14;76.39;97337.02;110451;1244;72173;-65
2022/02/03 07:48:23;;;;;;;16.00;9.60;;;;;;;0.19;76.54;97340.64;110243;1244;69208;-65
2022/02/03 07:50:55;;;;;;;15.50;10.30;;;;;;;0.24;76.39;97341.15;110220;1244;70031;-65
2022/02/03 07:53:25;;;;;;;21.50;14.80;;;;;;;0.32;76.19;97345.36;110398;1244;59736;-65
2022/02/03 07:55:55;;;;;;;18.90;13.10;;;;;;;0.40;76.05;97344.04;110363;1244;59676;-65
2022/02/03 07:58:24;;;;;;;17.30;10.70;;;;;;;0.45;75.32;97341.64;110138;1244;71524;-69
2022/02/03 08:00:53;;;;;;;17.20;11.50;;;;;;;0.49;75.10;97340.98;110528;1244;68387;-65
2022/02/03 08:03:22;;;;;;;19.40;13.20;;;;;;;0.49;75.02;97350.27;110352;1244;70035;-66
2022/02/03 08:05:58;;;;;;;17.10;10.50;;;;;;;0.50;75.17;97351.07;110217;1246;59755;-65
2022/02/03 08:08:38;;;;;;;20.10;12.30;;;;;;;0.56;74.87;97353.12;110524;1244;59699;-65
2022/02/03 08:11:12;;;;;;;16.60;10.40;;;;;;;0.63;74.76;97356.14;110516;1244;71400;-67
2022/02/03 08:16:38;;;;;;;19.90;12.20;;;;;;;0.60;73.98;97354.69;110220;1244;69376;-66
2022/02/03 08:19:23;;;;;;;17.20;10.00;;;;;;;0.62;74.07;97354.64;110456;1244;59690;-68
2022/02/03 08:22:40;;;;;;;18.70;11.60;;;;;;;0.60;73.99;97361.89;110290;1247;59754;-65
2022/02/03 08:32:31;;;;;;;;;;;;;;;0.65;72.94;97377.50;110341;1245;59757;-66
2022/02/03 08:37:57;;;;;;;14.40;9.50;;;;;;;0.78;72.88;97389.43;110010;1247;71490;-65
2022/02/03 08:40:40;;;;;;;14.40;10.30;;;;;;;0.82;71.84;97393.58;110476;1244;67865;-65
2022/02/03 08:43:15;;;;;;;14.80;9.90;;;;;;;0.82;71.73;97398.02;110497;1244;69893;-65
2022/02/03 08:45:45;;;;;;;13.70;9.30;;;;;;;0.85;72.15;97404.61;110520;1244;60079;-66
2022/02/03 08:48:15;;;;;;;13.60;9.80;;;;;;;0.89;71.53;97400.73;110348;1244;59691;-67
2022/02/03 08:50:44;;;;;;;16.40;11.20;;;;;;;0.91;71.66;97406.49;110261;1244;71605;-65
2022/02/03 08:53:24;;;;;;;13.70;8.60;;;;;;;0.97;71.59;97408.86;110308;1244;67879;-67
2022/02/03 08:56:17;;;;;;;14.30;8.50;;;;;;;1.00;71.38;97414.06;110458;1245;68458;-67
2022/02/03 09:35:13;;;;;;;19.10;12.50;;;;;;;2.13;66.44;97445.85;110374;1244;68613;-65
2022/02/03 09:51:40;;;;;;;17.10;10.90;;;;;;;2.79;64.45;97454.02;109802;1249;68662;-67
2022/02/03 09:59:15;;;;;;;28.20;15.50;;;;;;;2.74;64.76;97458.22;110083;1247;71665;-66
2022/02/03 10:01:55;;;;;;;16.30;10.30;;;;;;;2.86;63.77;97457.92;110101;1247;68481;-75
2022/02/03 10:04:53;;;;;;;14.40;8.00;;;;;;;2.94;63.76;97452.05;110180;1247;69433;-68
2022/02/03 10:07:34;;;;;;;15.40;9.50;;;;;;;3.08;63.08;97451.14;110229;1247;59609;-67
2022/02/03 10:10:10;;;;;;;11.60;8.10;;;;;;;3.14;62.79;97447.95;110482;1244;59720;-71
2022/02/03 10:12:42;;;;;;;15.90;10.10;;;;;;;3.22;62.54;97448.27;110455;1244;69835;-67
2022/02/03 10:15:12;;;;;;;13.40;8.70;;;;;;;3.33;61.63;97450.27;110455;1244;67601;-66
2022/02/03 10:17:45;;;;;;;14.70;8.10;;;;;;;3.35;61.22;97449.98;110453;1244;70251;-66
2022/02/03 10:20:22;;;;;;;13.80;9.20;;;;;;;3.28;60.01;97452.36;110448;1244;59753;-67
2022/02/03 10:22:55;;;;;;;12.40;8.50;;;;;;;3.16;60.07;97449.22;110600;1243;59673;-64
2022/02/03 10:25:35;;;;;;;11.80;7.90;;;;;;;3.15;60.82;97448.59;110407;1244;71067;-64
2022/02/03 10:28:10;;;;;;;13.90;9.60;;;;;;;3.24;60.66;97447.36;110362;1244;68676;-65
2022/02/03 10:30:55;;;;;;;13.30;8.60;;;;;;;3.26;59.72;97446.56;110222;1246;68501;-64
2022/02/03 10:33:33;;;;;;;14.80;11.70;;;;;;;3.25;60.41;97450.92;110401;1247;59748;-65
2022/02/03 10:36:07;;;;;;;22.10;15.20;;;;;;;3.41;60.70;97451.80;110604;1246;59672;-65
2022/02/03 11:03:11;;;;;;;12.00;7.70;;;;;;;3.91;58.18;97468.02;110212;1246;59729;-67
2022/02/03 11:06:07;;;;;;;10.80;6.80;;;;;;;4.68;55.50;97465.45;110207;1247;71375;-67
2022/02/03 11:11:17;;;;;;;14.20;10.10;;;;;;;6.08;50.57;97469.40;110063;1247;68712;-65
2022/02/03 11:13:48;;;;;;;13.90;10.20;;;;;;;6.23;50.25;97469.45;110270;1247;59678;-67
2022/02/03 11:16:20;;;;;;;28.00;23.80;;;;;;;6.12;50.35;97472.63;110226;1247;59692;-67
2022/02/03 11:18:49;;;;;;;13.60;9.10;;;;;;;5.77;50.40;97476.23;110258;1247;72310;-67
2022/02/03 11:21:18;;;;;;;9.50;6.90;;;;;;;5.65;50.50;97470.97;110452;1246;68600;-65
2022/02/03 11:23:58;;;;;;;11.50;9.50;;;;;;;5.59;50.79;97469.37;110275;1246;69821;-65
2022/02/03 11:30:02;;;;;;;9.80;7.40;;;;;;;5.10;50.59;97468.57;110432;1245;59723;-65
2022/02/03 11:35:02;;;;;;;8.90;6.90;;;;;;;4.92;51.43;97482.75;110379;1246;68660;-65
2022/02/03 11:40:44;;;;;;;10.40;6.70;;;;;;;4.51;52.23;97477.67;110554;1246;59723;-65
2022/02/03 11:44:05;;;;;;;9.00;6.20;;;;;;;4.28;52.34;97481.30;110042;1247;59678;-65
2022/02/03 12:16:34;;;;;;;8.70;7.50;;;;;;;5.01;47.79;97471.42;110136;1247;67786;-64
2022/02/03 12:22:28;;;;;;;7.80;6.80;;;;;;;5.54;46.10;97482.41;110131;1247;59723;-67
2022/02/03 12:25:23;;;;;;;6.80;5.10;;;;;;;5.56;46.26;97481.59;110235;1247;59620;-67
2022/02/03 12:39:15;;;;;;;4.90;3.50;;;;;;;4.27;45.95;97483.79;110049;1248;59722;-67
2022/02/03 12:42:05;;;;;;;5.80;4.10;;;;;;;4.14;47.22;97489.40;110008;1247;71361;-67
2022/02/03 12:44:39;;;;;;;6.60;4.60;;;;;;;4.06;47.62;97490.94;109981;1247;69548;-66
2022/02/03 12:47:11;;;;;;;7.00;4.50;;;;;;;4.05;47.39;97489.80;109846;1249;68776;-66
2022/02/03 12:49:46;;;;;;;10.10;6.20;;;;;;;4.06;47.14;97496.47;109958;1248;59697;-67
2022/02/03 12:52:28;;;;;;;6.20;4.40;;;;;;;4.10;46.75;97497.69;109899;1247;59966;-66
2022/02/03 12:54:59;;;;;;;6.40;4.60;;;;;;;4.17;45.95;97499.80;109988;1247;70385;-67
2022/02/03 12:57:33;;;;;;;8.20;5.80;;;;;;;4.30;46.73;97505.91;110081;1247;68641;-66
2022/02/03 13:00:27;;;;;;;6.30;5.70;;;;;;;4.21;44.24;97503.05;110040;1247;68715;-67
2022/02/03 13:03:20;;;;;;;6.70;5.40;;;;;;;4.68;45.49;97504.98;110110;1247;59769;-67
2022/02/03 13:05:53;;;;;;;6.20;4.40;;;;;;;6.62;42.58;97510.34;109975;1247;59675;-67
2022/02/03 13:08:55;;;;;;;7.90;4.60;;;;;;;8.47;37.54;97513.55;110120;1247;70516;-67
2022/02/03 13:16:50;;;;;;;7.90;5.20;;;;;;;8.83;35.79;97522.08;110181;1247;59739;-67
2022/02/03 13:19:37;;;;;;;5.20;3.80;;;;;;;8.48;35.81;97514.73;110086;1247;59664;-66
2022/02/03 13:25:02;;;;;;;8.20;5.20;;;;;;;9.28;33.83;97520.34;109950;1247;67951;-67
2022/02/03 13:30:44;;;;;;;5.30;4.20;;;;;;;7.47;35.99;97526.75;110188;1247;59760;-66
2022/02/03 13:33:25;;;;;;;6.30;3.90;;;;;;;6.47;37.41;97529.73;110021;1249;59985;-66
2022/02/03 13:36:07;;;;;;;5.60;3.70;;;;;;;5.95;38.50;97534.29;110217;1247;71564;-66
2022/02/03 13:38:44;;;;;;;5.80;3.80;;;;;;;5.35;39.77;97534.91;110157;1247;67626;-66
2022/02/03 13:41:23;;;;;;;4.90;3.30;;;;;;;4.91;40.35;97535.83;109947;1245;69531;-66
2022/02/03 13:43:56;;;;;;;5.60;3.50;;;;;;;4.59;41.11;97536.98;110132;1247;59723;-67
2022/02/03 13:46:37;;;;;;;5.90;4.40;;;;;;;4.34;42.09;97541.45;110086;1247;59693;-67
2022/02/03 13:49:16;;;;;;;6.70;3.90;;;;;;;4.17;42.18;97541.89;110393;1245;70151;-67
2022/02/03 13:52:10;;;;;;;5.90;3.90;;;;;;;4.11;42.78;97541.44;110044;1247;67892;-66
2022/02/03 14:28:49;;;;;;;5.50;4.00;;;;;;;9.18;34.46;97591.63;110170;1247;59737;-66
2022/02/03 14:31:18;;;;;;;6.60;4.70;;;;;;;8.02;35.59;97599.10;110278;1247;72137;-65
2022/02/03 14:33:47;;;;;;;6.60;4.20;;;;;;;6.96;37.44;97605.35;110337;1245;68426;-65
2022/02/03 14:36:21;;;;;;;4.90;4.20;;;;;;;6.11;39.16;97607.30;110027;1247;70088;-65
2022/02/03 14:39:01;;;;;;;6.50;5.00;;;;;;;5.22;40.41;97612.42;110458;1247;59722;-64
2022/02/03 14:41:36;;;;;;;7.40;4.90;;;;;;;4.59;41.99;97614.35;110582;1246;59683;-67
2022/02/03 14:44:07;;;;;;;8.30;6.60;;;;;;;5.06;41.65;97614.23;110516;1246;71626;-67
2022/02/03 14:46:38;;;;;;;9.00;6.40;;;;;;;5.69;40.73;97616.52;110502;1246;68671;-66
2022/02/03 14:49:09;;;;;;;7.10;5.40;;;;;;;5.52;40.90;97619.27;110060;1247;68973;-66
2022/02/03 14:51:52;;;;;;;6.60;4.90;;;;;;;4.82;41.74;97617.76;110171;1247;59732;-66
2022/02/03 14:59:48;;;;;;;10.60;8.60;;;;;;;5.38;41.89;97624.63;110108;1247;68548;-66
2022/02/03 15:02:20;;;;;;;6.90;4.60;;;;;;;5.93;40.61;97622.24;109934;1247;68920;-67
2022/02/03 15:04:54;;;;;;;6.10;5.00;;;;;;;6.33;40.43;97627.64;109699;1249;59765;-68
2022/02/03 15:07:27;;;;;;;8.60;5.50;;;;;;;6.58;40.16;97629.41;110007;1247;59689;-66
2022/02/03 15:12:55;;;;;;;6.50;4.60;;;;;;;5.58;40.78;97630.88;109901;1248;67756;-66
2022/02/03 15:15:28;;;;;;;6.30;4.60;;;;;;;4.79;41.50;97633.25;110069;1247;70518;-66
2022/02/03 15:18:02;;;;;;;8.20;4.50;;;;;;;4.10;42.77;97637.38;110020;1248;59936;-66
2022/02/03 15:20:38;;;;;;;7.50;5.80;;;;;;;3.49;43.94;97646.65;109727;1248;59701;-67
2022/02/03 15:23:09;;;;;;;10.20;7.20;;;;;;;2.86;44.69;97648.96;109945;1250;71543;-66
2022/02/03 15:25:41;;;;;;;6.60;4.10;;;;;;;2.34;45.70;97646.59;109922;1247;68530;-66
2022/02/03 15:28:14;;;;;;;6.20;4.30;;;;;;;1.97;46.55;97655.83;110263;1247;70606;-67
2022/02/03 15:30:45;;;;;;;35.20;19.40;;;;;;;1.59;47.68;97656.56;110203;1247;59618;-67
2022/02/03 15:33:17;;;;;;;16.60;8.70;;;;;;;1.31;48.21;97655.77;110056;1247;60155;-67
2022/02/03 15:35:52;;;;;;;14.70;7.90;;;;;;;1.04;48.61;97658.33;110259;1247;70900;-67
2022/02/03 15:38:25;;;;;;;32.40;18.40;;;;;;;0.79;49.61;97661.15;109970;1248;67969;-66
2022/02/03 15:40:56;;;;;;;27.00;15.20;;;;;;;0.62;50.38;97661.51;110119;1247;70505;-66
2022/02/03 15:43:31;;;;;;;25.60;14.50;;;;;;;0.46;50.41;97657.83;110023;1247;60212;-65
2022/02/03 15:46:03;;;;;;;8.00;4.80;;;;;;;0.36;50.86;97660.50;110191;1247;59624;-66
2022/02/03 16:18:51;;;;;;;6.60;4.50;;;;;;;-0.98;54.56;97700.54;110234;1247;67920;-65
2022/02/03 16:21:39;;;;;;;8.40;4.80;;;;;;;-1.04;54.87;97708.36;109983;1247;69436;-66
2022/02/03 16:24:20;;;;;;;6.30;5.00;;;;;;;-1.09;54.75;97710.84;110247;1247;59744;-67
2022/02/03 16:32:02;;;;;;;9.30;5.10;;;;;;;-1.16;55.04;97714.95;110532;1245;59664;-66
2022/02/03 16:54:18;;;;;;;6.60;4.10;;;;;;;-1.65;56.46;97714.39;110428;1244;59678;-65
2022/02/03 16:56:51;;;;;;;6.40;4.40;;;;;;;-1.62;55.98;97717.25;110440;1245;71371;-65
2022/02/03 16:59:20;;;;;;;6.10;4.10;;;;;;;-1.67;56.12;97719.73;110380;1247;68997;-64
2022/02/03 17:01:49;;;;;;;6.70;4.40;;;;;;;-1.71;56.28;97720.15;110204;1247;70071;-65
2022/02/03 17:04:18;;;;;;;6.30;4.40;;;;;;;-1.77;56.39;97719.92;109987;1250;59713;-64
2022/02/03 17:06:47;;;;;;;6.40;4.80;;;;;;;-1.80;56.51;97721.02;110103;1247;59718;-65
2022/02/03 17:09:16;;;;;;;5.20;3.70;;;;;;;-1.86;56.76;97722.83;110090;1247;71967;-64
2022/02/03 17:11:45;;;;;;;5.60;3.60;;;;;;;-1.88;56.76;97722.20;110002;1247;68993;-65
2022/02/03 17:14:14;;;;;;;9.10;5.20;;;;;;;-1.94;57.26;97721.11;110164;1247;70157;-66
2022/02/03 17:16:43;;;;;;;8.10;5.20;;;;;;;-1.99;57.41;97728.88;110148;1248;59719;-66
2022/02/03 17:19:12;;;;;;;6.80;4.70;;;;;;;-1.95;57.04;97721.45;110138;1247;59741;-66
2022/02/03 17:21:41;;;;;;;12.00;8.00;;;;;;;-1.98;57.05;97720.67;110222;1247;71719;-64
2022/02/03 17:24:11;;;;;;;5.30;3.70;;;;;;;-2.01;57.13;97724.64;110358;1247;69034;-64
2022/02/03 17:26:56;;;;;;;5.60;4.60;;;;;;;-2.04;57.37;97728.61;110413;1247;68344;-66
2022/02/03 17:30:07;;;;;;;7.10;5.60;;;;;;;-2.06;57.28;97731.21;110194;1247;59750;-64
2022/02/03 18:11:33;;;;;;;7.30;5.20;;;;;;;-2.68;59.38;97749.27;110308;1247;59745;-64
2022/02/03 18:17:24;;;;;;;9.00;6.30;;;;;;;-2.82;59.98;97757.34;110312;1244;71951;-65
2022/02/03 18:25:50;;;;;;;7.60;5.20;;;;;;;-2.83;60.22;97757.34;110364;1245;68986;-65
2022/02/03 18:32:32;;;;;;;21.40;12.30;;;;;;;-2.95;60.58;97746.77;110364;1245;70969;-64
2022/02/03 18:37:27;;;;;;;9.80;6.60;;;;;;;-3.08;61.94;97738.92;110057;1247;69535;-64
2022/02/03 18:54:30;;;;;;;28.50;17.70;;;;;;;-3.93;64.86;97769.55;109866;1250;60332;-65
2022/02/03 18:57:15;;;;;;;20.30;13.20;;;;;;;-4.06;64.72;97769.33;109818;1250;59776;-65
2022/02/03 19:25:03;;;;;;;11.90;7.60;;;;;;;-4.72;65.35;97776.83;110324;1244;59681;-64
2022/02/03 19:27:42;;;;;;;21.80;13.40;;;;;;;-4.66;66.33;97778.48;110385;1244;71938;-64
2022/02/03 20:08:52;;;;;;;44.70;27.40;;;;;;;-5.77;68.33;97798.16;110396;1247;72139;-64
2022/02/03 20:11:23;;;;;;;40.60;26.70;;;;;;;-5.82;68.31;97796.98;110348;1247;69235;-66
2022/02/03 20:13:52;;;;;;;31.30;18.00;;;;;;;-5.88;69.26;97796.66;110407;1244;69920;-65
2022/02/03 20:16:22;;;;;;;43.80;26.10;;;;;;;-5.92;71.85;97797.36;110415;1245;59693;-64
2022/02/03 20:18:51;;;;;;;27.20;19.80;;;;;;;-5.98;73.10;97801.79;110117;1247;59693;-64
2022/02/03 20:21:21;;;;;;;26.90;16.70;;;;;;;-6.00;72.02;97798.58;110442;1244;72211;-66
2022/02/03 20:23:50;;;;;;;31.50;18.00;;;;;;;-6.04;70.84;97807.57;110360;1245;68994;-64
2022/02/03 20:26:19;;;;;;;24.80;17.70;;;;;;;-6.10;70.49;97806.88;110397;1247;69924;-64
2022/02/03 20:28:48;;;;;;;39.40;25.00;;;;;;;-6.16;70.60;97811.32;110278;1247;59761;-64
2022/02/03 20:31:17;;;;;;;28.70;16.70;;;;;;;-6.23;70.68;97814.88;110354;1244;59739;-66
2022/02/03 20:33:46;;;;;;;17.90;11.00;;;;;;;-6.27;70.11;97817.58;110379;1244;72229;-64
2022/02/03 20:36:15;;;;;;;28.40;18.50;;;;;;;-6.31;70.01;97819.29;110403;1244;69014;-64
2022/02/03 20:38:44;;;;;;;36.20;22.00;;;;;;;-6.36;71.99;97821.98;110396;1244;69937;-64
2022/02/03 20:41:14;;;;;;;36.60;20.80;;;;;;;-6.42;73.02;97819.77;110284;1245;59720;-66
2022/02/03 20:43:44;;;;;;;35.20;22.00;;;;;;;-6.45;72.92;97817.41;110399;1244;59678;-64
2022/02/03 20:46:13;;;;;;;24.40;17.70;;;;;;;-6.49;74.45;97816.73;110322;1245;72147;-63
2022/02/03 20:48:46;;;;;;;30.70;18.90;;;;;;;-6.53;72.89;97812.48;110345;1247;68382;-64
2022/02/03 20:51:17;;;;;;;30.70;19.50;;;;;;;-6.58;72.95;97807.05;110278;1244;70375;-63
2022/02/03 20:53:48;;;;;;;24.50;16.50;;;;;;;-6.61;72.37;97813.82;110320;1247;59740;-64
2022/02/03 20:56:18;;;;;;;20.40;15.90;;;;;;;-6.65;73.05;97816.18;110355;1246;59719;-64
2022/02/03 20:58:48;;;;;;;19.10;13.30;;;;;;;-6.67;72.64;97821.27;110422;1245;71936;-64
2022/02/03 21:01:28;;;;;;;16.90;11.30;;;;;;;-6.69;73.72;97822.97;110305;1244;69041;-64
2022/02/03 21:04:04;;;;;;;22.20;14.90;;;;;;;-6.72;74.14;97830.08;110346;1244;69252;-64
2022/02/03 21:06:33;;;;;;;11.30;8.30;;;;;;;-6.75;74.35;97833.48;110095;1244;59729;-65
2022/02/03 21:09:05;;;;;;;20.40;14.00;;;;;;;-6.77;75.10;97833.79;110565;1244;59675;-64
2022/02/03 21:11:35;;;;;;;18.20;11.80;;;;;;;-6.80;75.85;97832.77;110416;1247;70821;-65
2022/02/03 21:14:09;;;;;;;11.10;9.40;;;;;;;-6.82;74.77;97830.40;110271;1247;69026;-65
2022/02/03 21:16:39;;;;;;;14.30;8.40;;;;;;;-6.85;73.43;97832.59;110116;1244;69837;-64
2022/02/03 21:19:10;;;;;;;20.00;12.50;;;;;;;-6.89;74.30;97839.36;110303;1247;59742;-64
2022/02/03 21:21:39;;;;;;;18.20;12.60;;;;;;;-6.93;77.88;97837.84;110156;1247;59738;-64
2022/02/03 21:24:08;;;;;;;17.90;12.90;;;;;;;-6.91;78.32;97836.65;110172;1244;71442;-66
2022/02/03 21:26:40;;;;;;;18.90;13.10;;;;;;;-6.88;77.31;97835.48;110087;1247;68409;-65
2022/02/03 21:29:09;;;;;;;14.50;9.80;;;;;;;-6.86;75.99;97836.14;110103;1247;69204;-64
2022/02/03 21:31:39;;;;;;;12.90;9.70;;;;;;;-6.84;74.68;97832.09;110309;1244;59704;-64
2022/02/03 21:34:13;;;;;;;19.20;12.60;;;;;;;-6.79;72.90;97834.81;110408;1246;59722;-65
2022/02/03 21:36:44;;;;;;;32.30;20.00;;;;;;;-6.78;73.40;97833.63;110358;1246;71288;-66
2022/02/03 21:39:13;;;;;;;16.60;12.10;;;;;;;-6.82;75.51;97838.20;110389;1244;67842;-65
2022/02/03 21:41:42;;;;;;;16.80;10.90;;;;;;;-6.82;73.88;97839.73;110277;1247;69966;-64
2022/02/03 21:44:15;;;;;;;18.20;12.70;;;;;;;-6.84;73.51;97839.20;110135;1247;59744;-64
2022/02/03 21:46:45;;;;;;;13.80;8.60;;;;;;;-6.84;73.24;97833.96;110435;1244;59676;-63
2022/02/03 21:49:15;;;;;;;10.70;8.90;;;;;;;-6.84;72.56;97827.01;110485;1244;71590;-64
2022/02/03 21:51:46;;;;;;;23.50;17.00;;;;;;;-6.86;73.54;97822.58;110057;1247;69226;-65
2022/02/03 21:54:15;;;;;;;24.00;15.20;;;;;;;-6.88;76.79;97821.56;110174;1247;68053;-64
2022/02/03 21:56:45;;;;;;;18.70;12.30;;;;;;;-6.89;77.12;97820.88;110069;1247;59691;-64
2022/02/03 21:59:15;;;;;;;15.80;12.60;;;;;;;-6.91;75.62;97825.45;110141;1247;59680;-64
2022/02/03 22:01:44;;;;;;;18.10;11.30;;;;;;;-6.94;73.94;97825.77;110066;1248;71502;-63
2022/02/03 22:04:13;;;;;;;23.00;16.50;;;;;;;-6.95;72.60;97823.06;110084;1246;68186;-64
2022/02/03 22:06:43;;;;;;;30.30;20.50;;;;;;;-6.99;74.38;97820.34;110401;1247;69473;-64
2022/02/03 22:09:12;;;;;;;30.70;19.10;;;;;;;-7.02;74.64;97818.99;110439;1247;59699;-64
2022/02/03 22:11:41;;;;;;;22.50;14.30;;;;;;;-7.03;75.52;97827.10;110006;1248;59793;-64
2022/02/03 22:14:10;;;;;;;24.80;15.60;;;;;;;-7.03;74.66;97824.05;110304;1247;71585;-64
2022/02/03 22:16:39;;;;;;;18.40;11.40;;;;;;;-7.02;74.08;97830.34;110367;1245;69017;-64
2022/02/03 22:19:10;;;;;;;19.90;11.50;;;;;;;-7.00;73.39;97832.72;110415;1246;69612;-63
2022/02/03 22:21:53;;;;;;;18.80;10.90;;;;;;;-6.98;72.79;97836.45;110420;1246;59685;-63
2022/02/03 22:24:32;;;;;;;17.20;10.00;;;;;;;-6.99;73.95;97838.98;110433;1246;59729;-63
2022/02/03 22:43:34;;;;;;;16.90;8.90;;;;;;;-7.11;75.06;97826.75;110242;1246;68911;-64
2022/02/03 22:46:14;;;;;;;11.40;7.10;;;;;;;-7.14;74.72;97831.14;110101;1247;68674;-64
2022/02/03 22:48:44;;;;;;;11.80;7.50;;;;;;;-7.18;74.25;97829.77;110116;1247;59742;-64
2022/02/03 22:51:13;;;;;;;15.70;9.50;;;;;;;-7.22;75.62;97830.44;110109;1247;59665;-66
2022/02/03 22:53:44;;;;;;;11.10;8.20;;;;;;;-7.23;75.05;97831.27;110319;1246;72160;-66
2022/02/03 22:56:15;;;;;;;23.00;13.80;;;;;;;-7.24;74.43;97828.40;110408;1245;69172;-64
2022/02/03 23:01:14;;;;;;;13.50;8.90;;;;;;;-7.19;76.88;97818.41;110120;1247;59747;-64
2022/02/03 23:03:44;;;;;;;14.60;9.40;;;;;;;-7.11;75.02;97818.27;110133;1247;59744;-64
2022/02/03 23:06:14;;;;;;;11.80;8.10;;;;;;;-7.04;74.94;97819.48;110119;1247;70868;-63
2022/02/03 23:14:02;;;;;;;23.30;13.70;;;;;;;-6.89;73.20;97812.91;110229;1244;59677;-64